createdAt,value
2022-08-08T00:00:53.878Z,7.10
2022-08-08T00:03:31.539Z,8.60
2022-08-08T00:06:41.413Z,8.00
2022-08-08T00:09:23.683Z,7.00
2022-08-08T00:12:07.653Z,8.50
2022-08-08T00:15:01.141Z,7.10
2022-08-08T00:18:02.509Z,8.40
2022-08-08T00:20:51.804Z,8.10
2022-08-08T00:23:42.798Z,7.10
2022-08-08T00:26:26.201Z,8.70
2022-08-08T00:29:11.683Z,9.90
2022-08-08T00:32:29.107Z,7.70
2022-08-08T00:35:18.763Z,8.40
2022-08-08T00:38:32.475Z,8.30
2022-08-08T00:41:54.466Z,9.60
2022-08-08T00:45:03.070Z,9.10
2022-08-08T00:48:30.217Z,7.30
2022-08-08T00:51:48.056Z,8.50
2022-08-08T00:54:33.652Z,7.30
2022-08-08T00:57:19.640Z,7.60
2022-08-08T01:00:06.487Z,8.30
2022-08-08T01:03:57.246Z,8.40
2022-08-08T01:06:16.268Z,7.20
2022-08-08T01:08:58.729Z,7.40
2022-08-08T01:12:05.053Z,8.20
2022-08-08T01:14:54.291Z,7.80
2022-08-08T01:17:52.169Z,8.20
2022-08-08T01:20:31.157Z,7.60
2022-08-08T01:24:06.129Z,8.80
2022-08-08T01:26:49.081Z,7.40
2022-08-08T01:29:59.191Z,9.60
2022-08-08T01:33:16.225Z,8.50
2022-08-08T01:36:10.983Z,8.10
2022-08-08T01:39:06.453Z,8.20
2022-08-08T01:41:57.985Z,9.30
2022-08-08T01:44:30.448Z,8.40
2022-08-08T01:48:15.003Z,6.80
2022-08-08T01:50:44.258Z,8.50
2022-08-08T01:55:17.135Z,7.00
2022-08-08T01:56:48.466Z,7.10
2022-08-08T02:00:02.090Z,8.30
2022-08-08T02:03:57.722Z,8.30
2022-08-08T02:06:43.353Z,9.00
2022-08-08T02:10:04.407Z,7.70
2022-08-08T02:12:50.258Z,9.70
2022-08-08T02:15:38.849Z,10.00
2022-08-08T02:18:45.096Z,7.20
2022-08-08T02:21:54.753Z,8.10
2022-08-08T02:24:32.210Z,9.60
2022-08-08T02:27:17.488Z,9.10
2022-08-08T02:30:24.681Z,7.90
2022-08-08T02:33:41.445Z,7.10
2022-08-08T02:36:30.991Z,7.90
2022-08-08T02:39:42.043Z,7.70
2022-08-08T02:42:36.009Z,8.90
2022-08-08T02:45:32.406Z,6.60
2022-08-08T02:48:40.911Z,8.90
2022-08-08T02:51:30.597Z,9.80
2022-08-08T02:54:15.682Z,8.10
2022-08-08T02:57:21.752Z,6.90
2022-08-08T03:00:26.396Z,7.00
2022-08-08T03:03:08.983Z,7.30
2022-08-08T03:06:24.055Z,6.70
2022-08-08T03:09:41.791Z,7.70
2022-08-08T03:13:01.320Z,7.40
2022-08-08T03:16:05.644Z,6.90
2022-08-08T03:18:37.590Z,7.50
2022-08-08T03:21:09.569Z,9.40
2022-08-08T03:23:59.218Z,9.10
2022-08-08T03:26:32.690Z,7.10
2022-08-08T03:29:21.012Z,7.60
2022-08-08T03:32:14.364Z,7.80
2022-08-08T03:34:48.521Z,7.60
2022-08-08T03:38:00.095Z,8.80
2022-08-08T03:40:10.820Z,8.50
2022-08-08T03:42:55.510Z,8.10
2022-08-08T03:46:03.502Z,7.70
2022-08-08T03:48:21.244Z,7.20
2022-08-08T03:51:06.719Z,8.00
2022-08-08T03:53:42.269Z,8.60
2022-08-08T03:56:32.154Z,8.50
2022-08-08T03:59:02.034Z,8.10
2022-08-08T04:02:13.117Z,9.30
2022-08-08T04:04:30.941Z,8.60
2022-08-08T04:07:01.551Z,9.30
2022-08-08T04:09:58.972Z,8.80
2022-08-08T04:12:20.447Z,10.00
2022-08-08T04:14:51.665Z,8.80
2022-08-08T04:17:22.305Z,9.30
2022-08-08T04:20:09.126Z,8.90
2022-08-08T04:22:38.404Z,10.10
2022-08-08T04:25:08.237Z,8.90
2022-08-08T04:28:03.529Z,9.80
2022-08-08T04:30:44.323Z,7.90
2022-08-08T04:33:15.597Z,8.30
2022-08-08T04:35:50.721Z,7.80
2022-08-08T04:38:22.184Z,9.80
2022-08-08T04:40:54.193Z,9.10
2022-08-08T04:43:32.035Z,8.30
2022-08-08T04:46:14.691Z,8.70
2022-08-08T04:51:48.480Z,9.60
2022-08-08T04:54:39.834Z,10.20
2022-08-08T04:57:06.521Z,10.60
2022-08-08T04:59:42.063Z,9.50
2022-08-08T05:02:13.638Z,8.00
2022-08-08T05:04:44.579Z,11.20
2022-08-08T05:07:14.855Z,9.00
2022-08-08T05:09:44.223Z,8.80
2022-08-08T05:12:20.486Z,8.70
2022-08-08T05:14:53.109Z,9.80
2022-08-08T05:17:26.369Z,12.60
2022-08-08T05:20:12.631Z,9.00
2022-08-08T05:22:43.305Z,7.70
2022-08-08T05:25:11.947Z,9.20
2022-08-08T05:27:41.315Z,8.20
2022-08-08T05:30:13.562Z,8.10
2022-08-08T05:32:50.185Z,10.90
2022-08-08T05:35:23.530Z,10.10
2022-08-08T05:38:32.291Z,9.50
2022-08-08T05:41:04.467Z,11.80
2022-08-08T05:44:02.357Z,9.20
2022-08-08T05:46:28.975Z,10.40
2022-08-08T05:49:07.538Z,7.70
2022-08-08T05:51:49.298Z,8.90
2022-08-08T05:54:27.313Z,8.90
2022-08-08T05:57:16.065Z,9.20
2022-08-08T06:00:22.493Z,10.40
2022-08-08T06:03:17.413Z,9.10
2022-08-08T06:06:09.785Z,8.10
2022-08-08T06:08:55.354Z,8.50
2022-08-08T06:11:32.911Z,8.90
2022-08-08T06:14:17.977Z,8.90
2022-08-08T06:16:47.497Z,6.50
2022-08-08T06:19:33.189Z,6.90
2022-08-08T06:22:32.232Z,7.50
2022-08-08T06:24:53.528Z,6.00
2022-08-08T06:27:36.301Z,7.60
2022-08-08T06:30:19.823Z,7.20
2022-08-08T06:33:00.928Z,7.00
2022-08-08T06:36:07.485Z,7.40
2022-08-08T06:38:27.591Z,6.10
2022-08-08T06:41:05.917Z,6.50
2022-08-08T06:43:40.957Z,7.50
2022-08-08T06:46:23.963Z,7.10
2022-08-08T06:48:53.682Z,5.90
2022-08-08T06:51:23.858Z,5.00
2022-08-08T06:54:01.500Z,6.90
2022-08-08T06:56:34.731Z,5.30
2022-08-08T06:59:09.915Z,6.50
2022-08-08T07:02:26.573Z,5.20
2022-08-08T07:04:56.082Z,6.10
2022-08-08T07:07:57.143Z,6.10
2022-08-08T07:10:33.308Z,5.90
2022-08-08T07:13:10.148Z,4.50
2022-08-08T07:16:04.793Z,8.80
2022-08-08T07:18:55.852Z,5.40
2022-08-08T07:21:31.278Z,4.50
2022-08-08T07:24:14.360Z,4.60
2022-08-08T07:26:53.166Z,5.80
2022-08-08T07:30:01.000Z,6.00
2022-08-08T07:32:15.836Z,5.10
2022-08-08T07:35:00.958Z,7.20
2022-08-08T07:37:49.684Z,5.50
2022-08-08T07:40:40.167Z,5.20
2022-08-08T07:43:12.446Z,5.70
2022-08-08T07:46:05.827Z,5.30
2022-08-08T07:48:35.798Z,5.70
2022-08-08T07:51:04.855Z,5.10
2022-08-08T07:54:02.873Z,4.90
2022-08-08T07:56:52.853Z,4.10
2022-08-08T07:59:25.982Z,7.80
2022-08-08T08:02:34.862Z,5.20
2022-08-08T08:04:53.225Z,5.10
2022-08-08T08:07:32.265Z,4.70
2022-08-08T08:10:12.677Z,4.90
2022-08-08T08:12:54.360Z,4.30
2022-08-08T08:15:26.317Z,3.90
2022-08-08T08:18:04.817Z,3.60
2022-08-08T08:20:35.843Z,5.60
2022-08-08T08:23:06.142Z,4.80
2022-08-08T08:25:42.772Z,4.70
2022-08-08T08:28:17.074Z,5.00
2022-08-08T08:30:50.253Z,4.80
2022-08-08T08:33:18.477Z,4.40
2022-08-08T08:36:18.765Z,4.70
2022-08-08T08:38:49.692Z,5.00
2022-08-08T08:41:23.852Z,5.80
2022-08-08T08:44:14.042Z,4.40
2022-08-08T08:46:45.634Z,6.30
2022-08-08T08:49:19.761Z,5.10
2022-08-08T08:51:52.800Z,5.70
2022-08-08T08:54:25.346Z,4.70
2022-08-08T08:56:57.309Z,8.60
2022-08-08T08:59:58.860Z,5.00
2022-08-08T09:02:24.653Z,4.10
2022-08-08T09:04:59.726Z,6.00
2022-08-08T09:07:39.039Z,5.20
2022-08-08T09:10:19.993Z,7.40
2022-08-08T09:12:51.567Z,4.90
2022-08-08T09:15:37.144Z,4.80
2022-08-08T09:18:09.717Z,7.40
2022-08-08T09:21:58.257Z,7.40
2022-08-08T09:23:40.890Z,6.30
2022-08-08T09:26:32.728Z,6.80
2022-08-08T09:29:09.608Z,5.00
2022-08-08T09:31:55.952Z,7.10
2022-08-08T09:34:35.130Z,5.30
2022-08-08T09:37:57.319Z,6.50
2022-08-08T09:40:10.655Z,7.80
2022-08-08T09:42:51.103Z,7.80
2022-08-08T09:45:55.149Z,7.60
2022-08-08T09:48:20.997Z,5.30
2022-08-08T09:50:55.855Z,4.90
2022-08-08T09:53:56.614Z,4.80
2022-08-08T09:56:35.197Z,4.50
2022-08-08T09:59:40.323Z,5.70
2022-08-08T10:02:12.616Z,4.20
2022-08-08T10:04:47.787Z,4.20
2022-08-08T10:07:26.982Z,5.00
2022-08-08T10:10:06.774Z,4.60
2022-08-08T10:12:53.051Z,6.30
2022-08-08T10:15:25.106Z,5.60
2022-08-08T10:18:05.361Z,4.30
2022-08-08T10:20:57.945Z,4.30
2022-08-08T10:23:58.047Z,4.20
2022-08-08T10:26:56.819Z,6.20
2022-08-08T10:29:58.566Z,5.80
2022-08-08T10:32:34.330Z,3.90
2022-08-08T10:36:06.796Z,4.80
2022-08-08T10:38:08.634Z,4.30
2022-08-08T10:40:38.956Z,4.80
2022-08-08T10:43:09.977Z,5.40
2022-08-08T10:45:56.524Z,4.50
2022-08-08T10:48:57.453Z,5.60
2022-08-08T10:51:31.651Z,6.00
2022-08-08T10:54:24.882Z,4.80
2022-08-08T10:57:03.827Z,4.50
2022-08-08T10:59:39.720Z,5.40
2022-08-08T11:02:09.640Z,5.10
2022-08-08T11:04:54.008Z,5.70
2022-08-08T11:08:30.673Z,6.10
2022-08-08T11:10:29.402Z,5.70
2022-08-08T11:13:25.484Z,3.70
2022-08-08T11:16:00.289Z,4.20
2022-08-08T11:18:30.682Z,3.60
2022-08-08T11:21:10.113Z,4.40
2022-08-08T11:23:42.144Z,4.30
2022-08-08T11:26:19.108Z,3.60
2022-08-08T11:28:50.265Z,4.00
2022-08-08T11:31:20.965Z,5.00
2022-08-08T11:34:01.929Z,4.40
2022-08-08T11:36:36.544Z,4.80
2022-08-08T11:39:12.758Z,6.70
2022-08-08T11:41:43.345Z,3.50
2022-08-08T11:44:15.031Z,5.10
2022-08-08T11:46:53.827Z,4.10
2022-08-08T11:49:23.158Z,4.20
2022-08-08T11:51:53.837Z,3.50
2022-08-08T11:54:38.370Z,5.30
2022-08-08T11:57:27.362Z,6.40
2022-08-08T12:00:09.906Z,5.00
2022-08-08T12:02:51.147Z,5.50
2022-08-08T12:05:33.752Z,4.60
2022-08-08T12:08:04.396Z,5.60
2022-08-08T12:10:33.436Z,3.90
2022-08-08T12:13:06.798Z,4.10
2022-08-08T12:15:46.898Z,3.90
2022-08-08T12:18:21.328Z,6.50
2022-08-08T12:20:53.374Z,4.90
2022-08-08T12:23:43.002Z,4.60
2022-08-08T12:26:28.147Z,4.60
2022-08-08T12:29:40.693Z,4.50
2022-08-08T12:32:17.306Z,6.70
2022-08-08T12:35:04.866Z,6.90
2022-08-08T12:38:01.613Z,5.10
2022-08-08T12:40:55.975Z,4.50
2022-08-08T12:43:46.498Z,5.00
2022-08-08T12:46:26.083Z,4.40
2022-08-08T12:49:22.131Z,4.50
2022-08-08T12:51:49.899Z,4.00
2022-08-08T12:54:36.027Z,4.30
2022-08-08T12:57:16.945Z,4.70
2022-08-08T13:00:04.971Z,5.70
2022-08-08T13:02:41.897Z,4.70
2022-08-08T13:05:26.752Z,4.20
2022-08-08T13:08:19.381Z,5.40
2022-08-08T13:10:56.229Z,3.90
2022-08-08T13:13:43.441Z,5.30
2022-08-08T13:16:25.679Z,3.50
2022-08-08T13:19:09.191Z,4.80
2022-08-08T13:21:55.336Z,5.50
2022-08-08T13:24:40.865Z,6.30
2022-08-08T13:27:21.008Z,4.80
2022-08-08T13:29:54.827Z,5.30
2022-08-08T13:32:25.581Z,5.90
2022-08-08T13:34:57.416Z,8.30
2022-08-08T13:37:27.888Z,3.90
2022-08-08T13:40:27.080Z,6.70
2022-08-08T13:42:57.714Z,5.30
2022-08-08T13:45:27.116Z,3.50
2022-08-08T13:48:00.130Z,4.90
2022-08-08T13:50:39.470Z,3.90
2022-08-08T13:53:24.431Z,4.60
2022-08-08T13:56:02.447Z,4.90
2022-08-08T13:58:30.752Z,5.20
2022-08-08T14:00:58.876Z,6.80
2022-08-08T14:03:47.208Z,5.00
2022-08-08T14:06:32.125Z,3.80
2022-08-08T14:09:24.339Z,5.00
2022-08-08T14:11:50.782Z,6.50
2022-08-08T14:14:20.972Z,4.70
2022-08-08T14:16:55.269Z,4.30
2022-08-08T14:19:58.311Z,3.70
2022-08-08T14:22:27.402Z,5.10
2022-08-08T14:25:00.676Z,8.70
2022-08-08T14:27:34.145Z,5.10
2022-08-08T14:30:16.913Z,4.90
2022-08-08T14:32:52.769Z,6.90
2022-08-08T14:35:35.655Z,5.20
2022-08-08T14:38:33.499Z,5.10
2022-08-08T14:40:59.612Z,5.40
2022-08-08T14:44:01.918Z,5.50
2022-08-08T14:46:17.869Z,4.40
2022-08-08T14:48:52.515Z,5.30
2022-08-08T14:51:31.137Z,5.00
2022-08-08T14:54:16.144Z,4.90
2022-08-08T14:56:57.981Z,6.60
2022-08-08T14:59:44.244Z,4.40
2022-08-08T15:02:22.226Z,5.10
2022-08-08T15:04:54.266Z,5.10
2022-08-08T15:07:24.103Z,5.30
2022-08-08T15:09:53.287Z,5.80
2022-08-08T15:12:34.842Z,5.20
2022-08-08T15:15:06.802Z,4.10
2022-08-08T15:17:38.220Z,4.50
2022-08-08T15:20:14.350Z,5.20
2022-08-08T15:22:44.608Z,4.50
2022-08-08T15:25:29.353Z,5.10
2022-08-08T15:28:32.612Z,5.20
2022-08-08T15:30:50.894Z,3.90
2022-08-08T15:33:35.207Z,4.90
2022-08-08T15:36:06.953Z,4.60
2022-08-08T15:38:35.134Z,4.80
2022-08-08T15:41:08.845Z,7.60
2022-08-08T15:43:38.052Z,6.60
2022-08-08T15:46:08.591Z,4.90
2022-08-08T15:48:38.612Z,4.20
2022-08-08T15:51:08.918Z,4.00
2022-08-08T15:53:48.991Z,4.70
2022-08-08T15:56:20.037Z,5.10
2022-08-08T15:58:49.330Z,5.50
2022-08-08T16:01:21.045Z,4.40
2022-08-08T16:03:51.653Z,5.50
2022-08-08T16:06:27.610Z,5.60
2022-08-08T16:12:59.957Z,6.20
2022-08-08T16:13:04.840Z,4.60
2022-08-08T16:14:37.410Z,4.80
2022-08-08T16:17:06.147Z,4.40
2022-08-08T16:19:59.526Z,4.60
2022-08-08T16:22:28.656Z,5.50
2022-08-08T16:25:05.602Z,6.10
2022-08-08T16:27:36.930Z,4.40
2022-08-08T16:30:16.263Z,5.80
2022-08-08T16:32:48.537Z,4.90
2022-08-08T16:35:18.751Z,5.40
2022-08-08T16:37:51.337Z,3.90
2022-08-08T16:40:19.832Z,4.30
2022-08-08T16:42:52.011Z,6.90
2022-08-08T16:46:37.078Z,6.60
2022-08-08T16:48:13.452Z,4.40
2022-08-08T16:50:41.961Z,8.00
2022-08-08T16:55:01.411Z,7.00
2022-08-08T16:56:02.931Z,4.20
2022-08-08T16:58:36.009Z,4.20
2022-08-08T17:01:14.757Z,4.90
2022-08-08T17:04:01.339Z,5.80
2022-08-08T17:06:37.124Z,5.30
2022-08-08T17:09:14.698Z,4.40
2022-08-08T17:11:48.471Z,4.90
2022-08-08T17:14:34.083Z,7.10
2022-08-08T17:17:04.715Z,4.90
2022-08-08T17:19:37.360Z,6.40
2022-08-08T17:22:10.039Z,4.40
2022-08-08T17:24:37.995Z,4.80
2022-08-08T17:27:08.207Z,5.10
2022-08-08T17:29:43.792Z,7.00
2022-08-08T17:32:28.881Z,5.10
2022-08-08T17:35:53.340Z,5.70
2022-08-08T17:37:54.110Z,4.70
2022-08-08T17:40:32.864Z,4.70
2022-08-08T17:43:01.055Z,5.70
2022-08-08T17:45:32.814Z,5.00
2022-08-08T17:48:04.769Z,4.50
2022-08-08T17:50:33.134Z,6.90
2022-08-08T17:53:03.846Z,7.30
2022-08-08T17:56:05.366Z,5.50
2022-08-08T17:58:27.721Z,5.40
2022-08-08T18:00:57.370Z,8.00
2022-08-08T18:03:27.987Z,5.70
2022-08-08T18:05:55.958Z,8.30
2022-08-08T18:08:41.669Z,5.20
2022-08-08T18:11:16.212Z,4.30
2022-08-08T18:13:46.000Z,6.50
2022-08-08T18:16:23.332Z,7.30
2022-08-08T18:18:57.565Z,6.90
2022-08-08T18:21:59.333Z,6.10
2022-08-08T18:24:21.564Z,7.30
2022-08-08T18:26:54.985Z,4.90
2022-08-08T18:29:30.065Z,7.90
2022-08-08T18:32:06.626Z,5.00
2022-08-08T18:34:37.780Z,7.30
2022-08-08T18:37:06.565Z,7.90
2022-08-08T18:39:42.028Z,9.00
2022-08-08T18:42:16.653Z,5.60
2022-08-08T18:44:55.210Z,6.90
2022-08-08T18:47:26.294Z,8.20
2022-08-08T18:49:58.734Z,5.70
2022-08-08T18:52:29.857Z,6.00
2022-08-08T18:55:10.107Z,6.80
2022-08-08T18:57:45.427Z,7.10
2022-08-08T19:00:20.123Z,9.00
2022-08-08T19:02:56.388Z,6.00
2022-08-08T19:05:33.976Z,5.90
2022-08-08T19:08:23.921Z,6.70
2022-08-08T19:10:55.603Z,6.20
2022-08-08T19:13:38.404Z,8.40
2022-08-08T19:16:19.531Z,7.10
2022-08-08T19:19:00.399Z,9.20
2022-08-08T19:21:49.276Z,9.80
2022-08-08T19:24:41.733Z,9.10
2022-08-08T19:27:08.005Z,10.50
2022-08-08T19:29:42.423Z,7.80
2022-08-08T19:32:19.550Z,7.80
2022-08-08T19:34:51.881Z,10.70
2022-08-08T19:37:43.436Z,8.30
2022-08-08T19:40:14.674Z,7.00
2022-08-08T19:42:58.648Z,7.30
2022-08-08T19:45:57.351Z,9.00
2022-08-08T19:48:30.750Z,5.20
2022-08-08T19:51:01.138Z,9.10
2022-08-08T19:53:53.359Z,7.20
2022-08-08T19:56:25.984Z,9.00
2022-08-08T19:59:11.720Z,8.80
2022-08-08T20:02:02.569Z,7.60
2022-08-08T20:04:30.421Z,8.00
2022-08-08T20:07:05.597Z,5.50
2022-08-08T20:09:57.065Z,6.70
2022-08-08T20:12:32.600Z,7.10
2022-08-08T20:15:16.474Z,7.70
2022-08-08T20:17:47.387Z,8.00
2022-08-08T20:20:19.040Z,10.40
2022-08-08T20:22:54.207Z,7.00
2022-08-08T20:25:29.801Z,7.20
2022-08-08T20:28:05.746Z,6.80
2022-08-08T20:30:53.393Z,8.00
2022-08-08T20:35:58.707Z,10.40
2022-08-08T20:38:34.408Z,11.40
2022-08-08T20:41:05.730Z,8.30
2022-08-08T20:43:49.197Z,10.80
2022-08-08T20:46:36.026Z,10.40
2022-08-08T20:49:07.880Z,8.70
2022-08-08T20:51:39.818Z,9.50
2022-08-08T20:54:14.139Z,7.90
2022-08-08T20:57:04.783Z,8.90
2022-08-08T20:59:41.709Z,8.20
2022-08-08T21:02:17.718Z,6.90
2022-08-08T21:05:01.006Z,7.30
2022-08-08T21:08:00.826Z,8.60
2022-08-08T21:10:28.284Z,8.00
2022-08-08T21:12:58.129Z,10.90
2022-08-08T21:16:05.809Z,10.70
2022-08-08T21:18:14.453Z,15.40
2022-08-08T21:20:42.510Z,13.60
2022-08-08T21:23:18.263Z,16.90
2022-08-08T21:25:48.819Z,14.50
2022-08-08T21:28:19.341Z,13.10
2022-08-08T21:31:21.740Z,9.70
2022-08-08T21:33:49.809Z,10.70
2022-08-08T21:36:20.961Z,8.50
2022-08-08T21:38:57.675Z,9.30
2022-08-08T21:41:28.877Z,8.40
2022-08-08T21:44:11.473Z,9.70
2022-08-08T21:48:01.155Z,7.30
2022-08-08T21:49:30.779Z,14.90
2022-08-08T21:54:31.445Z,7.20
2022-08-08T21:55:02.294Z,7.60
2022-08-08T21:57:41.844Z,7.40
2022-08-08T22:00:14.229Z,7.30
2022-08-08T22:02:44.751Z,9.30
2022-08-08T22:05:14.690Z,6.60
2022-08-08T22:07:48.316Z,6.10
2022-08-08T22:10:32.797Z,9.00
2022-08-08T22:13:17.389Z,8.40
2022-08-08T22:15:58.668Z,6.70
2022-08-08T22:18:33.530Z,7.80
2022-08-08T22:21:13.740Z,6.00
2022-08-08T22:23:49.443Z,7.70
2022-08-08T22:26:29.391Z,7.80
2022-08-08T22:29:04.645Z,7.00
2022-08-08T22:31:44.156Z,8.60
2022-08-08T22:34:32.374Z,9.20
2022-08-08T22:37:03.727Z,8.50
2022-08-08T22:39:45.748Z,7.60
2022-08-08T22:42:27.098Z,6.10
2022-08-08T22:44:57.872Z,7.70
2022-08-08T22:47:37.864Z,6.40
2022-08-08T22:50:25.051Z,6.80
2022-08-08T22:54:30.867Z,8.60
2022-08-08T22:55:59.266Z,7.50
2022-08-08T22:58:34.351Z,8.60
2022-08-08T23:02:00.611Z,7.50
2022-08-08T23:03:59.808Z,10.30
2022-08-08T23:06:27.997Z,12.10
2022-08-08T23:08:59.911Z,10.60
2022-08-08T23:11:57.962Z,11.10
2022-08-08T23:14:20.536Z,10.70
2022-08-08T23:16:54.491Z,10.00
2022-08-08T23:19:32.535Z,11.80
2022-08-08T23:22:06.889Z,10.20
2022-08-08T23:24:41.522Z,8.90
2022-08-08T23:27:17.198Z,7.20
2022-08-08T23:30:04.714Z,6.90
2022-08-08T23:32:33.333Z,6.40
2022-08-08T23:35:02.469Z,9.20
2022-08-08T23:37:54.032Z,6.00
2022-08-08T23:40:24.578Z,8.40
2022-08-08T23:42:52.995Z,10.20
2022-08-08T23:49:01.954Z,7.50
2022-08-08T23:49:05.462Z,9.70
2022-08-08T23:51:06.311Z,8.70
2022-08-08T23:54:05.663Z,8.10
2022-08-08T23:56:32.528Z,7.30
2022-08-08T23:59:02.700Z,8.80
